createdAt,value
2022-10-28T00:00:50.423Z,18.96
2022-10-28T00:01:52.027Z,18.96
2022-10-28T00:03:11.707Z,18.97
2022-10-28T00:04:13.225Z,18.98
2022-10-28T00:05:16.160Z,18.97
2022-10-28T00:06:19.541Z,19.00
2022-10-28T00:07:21.991Z,19.01
2022-10-28T00:08:23.586Z,19.01
2022-10-28T00:09:26.139Z,19.02
2022-10-28T00:10:27.669Z,19.03
2022-10-28T00:11:37.940Z,19.04
2022-10-28T00:12:39.661Z,19.03
2022-10-28T00:13:43.480Z,19.04
2022-10-28T00:14:44.967Z,19.04
2022-10-28T00:15:47.428Z,19.04
2022-10-28T00:16:49.074Z,19.04
2022-10-28T00:17:51.736Z,19.04
2022-10-28T00:18:54.216Z,19.05
2022-10-28T00:19:58.079Z,19.03
2022-10-28T00:21:01.931Z,19.03
2022-10-28T00:22:04.815Z,19.02
2022-10-28T00:23:06.334Z,19.02
2022-10-28T00:24:10.926Z,19.01
2022-10-28T00:25:12.448Z,19.00
2022-10-28T00:26:17.354Z,19.01
2022-10-28T00:27:20.223Z,19.00
2022-10-28T00:28:22.677Z,19.00
2022-10-28T00:29:25.360Z,19.00
2022-10-28T00:30:26.985Z,19.01
2022-10-28T00:31:31.549Z,19.03
2022-10-28T00:32:33.041Z,19.04
2022-10-28T00:33:35.863Z,19.03
2022-10-28T00:34:38.970Z,19.03
2022-10-28T00:35:41.459Z,19.03
2022-10-28T00:36:44.724Z,19.05
2022-10-28T00:37:47.232Z,19.04
2022-10-28T00:38:53.624Z,19.06
2022-10-28T00:39:56.079Z,19.06
2022-10-28T00:40:57.581Z,19.07
2022-10-28T00:42:03.523Z,19.05
2022-10-28T00:43:06.536Z,19.08
2022-10-28T00:44:46.188Z,19.07
2022-10-28T00:45:48.709Z,19.07
2022-10-28T00:46:53.188Z,19.08
2022-10-28T00:47:59.632Z,19.07
2022-10-28T00:49:06.450Z,19.09
2022-10-28T00:50:17.302Z,19.07
2022-10-28T00:51:20.891Z,19.08
2022-10-28T00:52:30.288Z,19.08
2022-10-28T00:53:32.928Z,19.08
2022-10-28T00:54:37.741Z,19.08
2022-10-28T00:55:40.069Z,19.07
2022-10-28T00:56:46.695Z,19.09
2022-10-28T00:57:49.264Z,19.08
2022-10-28T00:58:57.638Z,19.09
2022-10-28T01:00:01.509Z,19.09
2022-10-28T01:01:08.378Z,19.07
2022-10-28T01:02:10.124Z,19.08
2022-10-28T01:03:13.672Z,19.08
2022-10-28T01:04:16.374Z,19.08
2022-10-28T01:05:23.272Z,19.09
2022-10-28T01:06:28.537Z,19.08
2022-10-28T01:07:30.495Z,19.08
2022-10-28T01:08:33.466Z,19.08
2022-10-28T01:09:34.952Z,19.10
2022-10-28T01:11:05.501Z,19.08
2022-10-28T01:12:17.539Z,19.09
2022-10-28T01:13:34.371Z,19.09
2022-10-28T01:14:51.533Z,19.09
2022-10-28T01:16:03.515Z,19.07
2022-10-28T01:17:20.446Z,19.04
2022-10-28T01:18:28.411Z,19.06
2022-10-28T01:20:08.298Z,19.05
2022-10-28T01:21:44.391Z,19.05
2022-10-28T01:22:51.844Z,19.04
2022-10-28T01:24:10.814Z,19.06
2022-10-28T01:25:33.350Z,19.05
2022-10-28T01:27:05.256Z,19.04
2022-10-28T01:28:22.523Z,19.05
2022-10-28T01:29:56.763Z,19.04
2022-10-28T01:31:24.038Z,19.02
2022-10-28T01:32:33.202Z,19.03
2022-10-28T01:33:37.649Z,19.02
2022-10-28T01:34:52.982Z,19.05
2022-10-28T01:35:58.377Z,19.06
2022-10-28T01:37:06.421Z,19.06
2022-10-28T01:38:26.107Z,19.07
2022-10-28T01:39:33.304Z,19.06
2022-10-28T01:40:43.052Z,19.08
2022-10-28T01:41:51.661Z,19.07
2022-10-28T01:42:58.313Z,19.08
2022-10-28T01:44:05.021Z,19.07
2022-10-28T01:45:15.227Z,19.07
2022-10-28T01:46:25.492Z,19.07
2022-10-28T01:47:31.353Z,19.06
2022-10-28T01:49:49.060Z,19.07
2022-10-28T01:50:56.743Z,19.06
2022-10-28T01:52:04.223Z,19.07
2022-10-28T01:53:10.646Z,19.05
2022-10-28T01:54:23.856Z,19.04
2022-10-28T01:55:28.304Z,19.02
2022-10-28T01:56:35.488Z,18.99
2022-10-28T01:57:40.821Z,18.96
2022-10-28T01:58:44.002Z,18.95
2022-10-28T01:59:48.066Z,18.92
2022-10-28T02:00:50.967Z,18.89
2022-10-28T02:01:55.176Z,18.88
2022-10-28T02:02:56.968Z,18.86
2022-10-28T02:03:59.613Z,18.84
2022-10-28T02:05:05.857Z,18.84
2022-10-28T02:06:16.722Z,18.82
2022-10-28T02:07:18.324Z,18.80
2022-10-28T02:08:46.061Z,18.78
2022-10-28T02:10:01.143Z,18.76
2022-10-28T02:11:28.077Z,18.73
2022-10-28T02:12:31.960Z,18.69
2022-10-28T02:13:41.127Z,18.68
2022-10-28T02:15:00.482Z,18.66
2022-10-28T02:16:11.093Z,18.63
2022-10-28T02:17:24.179Z,18.62
2022-10-28T02:18:34.991Z,18.60
2022-10-28T02:19:48.072Z,18.59
2022-10-28T02:20:55.011Z,18.57
2022-10-28T02:22:10.731Z,18.57
2022-10-28T02:23:22.679Z,18.56
2022-10-28T02:24:37.271Z,18.55
2022-10-28T02:25:46.299Z,18.53
2022-10-28T02:26:53.410Z,18.51
2022-10-28T02:27:59.959Z,18.50
2022-10-28T02:29:06.157Z,18.50
2022-10-28T02:30:13.826Z,18.48
2022-10-28T02:31:22.380Z,18.46
2022-10-28T02:32:31.493Z,18.47
2022-10-28T02:33:38.174Z,18.46
2022-10-28T02:34:46.335Z,18.46
2022-10-28T02:35:53.372Z,18.45
2022-10-28T02:36:59.269Z,18.44
2022-10-28T02:38:05.638Z,18.45
2022-10-28T02:39:10.752Z,18.44
2022-10-28T02:40:19.106Z,18.44
2022-10-28T02:41:26.363Z,18.46
2022-10-28T02:42:31.763Z,18.43
2022-10-28T02:43:38.089Z,18.43
2022-10-28T02:44:45.453Z,18.42
2022-10-28T02:45:52.570Z,18.41
2022-10-28T02:46:57.643Z,18.40
2022-10-28T02:48:05.903Z,18.39
2022-10-28T02:49:10.745Z,18.38
2022-10-28T02:50:17.980Z,18.37
2022-10-28T02:51:23.170Z,18.36
2022-10-28T02:52:29.115Z,18.34
2022-10-28T02:53:33.117Z,18.34
2022-10-28T02:54:41.069Z,18.33
2022-10-28T02:55:45.465Z,18.33
2022-10-28T02:56:53.931Z,18.33
2022-10-28T02:57:57.336Z,18.32
2022-10-28T02:59:00.156Z,18.31
2022-10-28T03:00:06.927Z,18.31
2022-10-28T03:01:10.073Z,18.30
2022-10-28T03:02:12.705Z,18.29
2022-10-28T03:03:15.596Z,18.28
2022-10-28T03:04:18.109Z,18.26
2022-10-28T03:05:20.679Z,18.26
2022-10-28T03:07:25.035Z,18.26
2022-10-28T03:08:27.495Z,18.22
2022-10-28T03:09:28.981Z,18.23
2022-10-28T03:10:31.484Z,18.22
2022-10-28T03:11:33.035Z,18.22
2022-10-28T03:12:35.525Z,18.20
2022-10-28T03:13:37.016Z,18.19
2022-10-28T03:14:39.596Z,18.18
2022-10-28T03:15:41.105Z,18.17
2022-10-28T03:16:43.889Z,18.17
2022-10-28T03:17:45.539Z,18.16
2022-10-28T03:18:50.248Z,18.16
2022-10-28T03:19:51.762Z,18.16
2022-10-28T03:20:56.747Z,18.15
2022-10-28T03:22:00.531Z,18.15
2022-10-28T03:23:02.996Z,18.14
2022-10-28T03:24:04.875Z,18.13
2022-10-28T03:25:07.736Z,18.12
2022-10-28T03:26:09.395Z,18.12
2022-10-28T03:27:11.868Z,18.11
2022-10-28T03:28:13.406Z,18.11
2022-10-28T03:29:16.042Z,18.10
2022-10-28T03:30:18.968Z,18.09
2022-10-28T03:31:21.459Z,18.09
2022-10-28T03:33:30.453Z,18.08
2022-10-28T03:34:33.382Z,18.08
2022-10-28T03:35:35.876Z,18.08
2022-10-28T03:36:38.407Z,18.08
2022-10-28T03:39:56.887Z,18.04
2022-10-28T03:41:47.356Z,18.03
2022-10-28T03:42:49.488Z,18.01
2022-10-28T03:43:51.961Z,18.01
2022-10-28T03:44:53.449Z,18.00
2022-10-28T03:45:55.940Z,18.00
2022-10-28T03:46:57.482Z,18.01
2022-10-28T03:47:59.996Z,18.00
2022-10-28T03:49:01.574Z,18.02
2022-10-28T03:50:05.994Z,18.02
2022-10-28T03:51:07.779Z,18.01
2022-10-28T03:52:10.512Z,18.00
2022-10-28T03:53:12.113Z,17.99
2022-10-28T03:54:14.673Z,18.00
2022-10-28T03:55:16.603Z,18.00
2022-10-28T03:56:19.110Z,18.00
2022-10-28T03:57:20.622Z,17.99
2022-10-28T03:58:23.683Z,17.99
2022-10-28T03:59:25.247Z,18.01
2022-10-28T04:00:27.850Z,18.00
2022-10-28T04:01:32.706Z,18.01
2022-10-28T04:02:35.262Z,18.00
2022-10-28T04:03:36.838Z,18.00
2022-10-28T04:04:39.305Z,18.01
2022-10-28T04:05:42.465Z,18.00
2022-10-28T04:06:44.933Z,18.01
2022-10-28T04:07:46.891Z,18.02
2022-10-28T04:08:49.378Z,18.01
2022-10-28T04:09:51.339Z,18.01
2022-10-28T04:10:53.788Z,18.02
2022-10-28T04:11:55.359Z,18.03
2022-10-28T04:13:00.893Z,18.02
2022-10-28T04:14:02.508Z,18.02
2022-10-28T04:15:05.906Z,18.02
2022-10-28T04:16:07.540Z,18.01
2022-10-28T04:17:10.088Z,18.01
2022-10-28T04:18:12.724Z,18.02
2022-10-28T04:19:15.544Z,18.02
2022-10-28T04:20:17.387Z,18.02
2022-10-28T04:21:21.337Z,18.03
2022-10-28T04:22:22.835Z,18.03
2022-10-28T04:23:25.377Z,18.04
2022-10-28T04:24:26.906Z,18.03
2022-10-28T04:25:29.552Z,18.04
2022-10-28T04:26:31.718Z,18.04
2022-10-28T04:27:34.208Z,18.04
2022-10-28T04:28:35.707Z,18.04
2022-10-28T04:29:38.177Z,18.03
2022-10-28T04:30:39.718Z,18.03
2022-10-28T04:31:42.263Z,18.03
2022-10-28T04:32:45.281Z,18.05
2022-10-28T04:33:47.758Z,18.04
2022-10-28T04:34:49.333Z,18.05
2022-10-28T04:35:51.805Z,18.06
2022-10-28T04:36:54.672Z,18.08
2022-10-28T04:37:57.324Z,18.06
2022-10-28T04:38:58.866Z,18.06
2022-10-28T04:40:01.369Z,18.06
2022-10-28T04:41:03.736Z,18.06
2022-10-28T04:42:06.289Z,18.06
2022-10-28T04:43:09.951Z,18.04
2022-10-28T04:44:12.848Z,18.04
2022-10-28T04:45:15.584Z,18.04
2022-10-28T04:46:18.043Z,18.04
2022-10-28T04:47:19.566Z,18.04
2022-10-28T04:48:22.334Z,18.02
2022-10-28T04:49:26.935Z,18.03
2022-10-28T04:50:28.575Z,18.03
2022-10-28T04:51:31.136Z,18.04
2022-10-28T04:52:34.067Z,18.03
2022-10-28T04:53:36.533Z,18.03
2022-10-28T04:54:38.403Z,18.04
2022-10-28T04:55:40.886Z,18.04
2022-10-28T04:56:42.476Z,18.04
2022-10-28T04:57:44.990Z,18.05
2022-10-28T04:58:48.364Z,18.05
2022-10-28T04:59:49.860Z,18.07
2022-10-28T05:00:52.361Z,18.07
2022-10-28T05:01:54.024Z,18.07
2022-10-28T05:02:57.254Z,18.08
2022-10-28T05:03:59.108Z,18.09
2022-10-28T05:05:03.556Z,18.09
2022-10-28T05:06:05.546Z,18.10
2022-10-28T05:07:08.509Z,18.10
2022-10-28T05:08:11.508Z,18.10
2022-10-28T05:09:14.354Z,18.11
2022-10-28T05:10:17.869Z,18.11
2022-10-28T05:11:20.399Z,18.13
2022-10-28T05:12:21.919Z,18.13
2022-10-28T05:13:24.494Z,18.14
2022-10-28T05:14:26.143Z,18.15
2022-10-28T05:15:28.606Z,18.15
2022-10-28T05:16:30.226Z,18.15
2022-10-28T05:17:32.731Z,18.16
2022-10-28T05:18:34.320Z,18.15
2022-10-28T05:19:36.895Z,18.16
2022-10-28T05:20:38.501Z,18.18
2022-10-28T05:21:41.015Z,18.18
2022-10-28T05:22:46.472Z,18.20
2022-10-28T05:23:50.306Z,18.20
2022-10-28T05:24:52.070Z,18.21
2022-10-28T05:25:54.920Z,18.22
2022-10-28T05:26:56.450Z,18.23
2022-10-28T05:28:00.125Z,18.22
2022-10-28T05:29:01.619Z,18.24
2022-10-28T05:30:05.186Z,18.24
2022-10-28T05:31:07.021Z,18.26
2022-10-28T05:32:09.454Z,18.27
2022-10-28T05:33:12.178Z,18.28
2022-10-28T05:34:13.725Z,18.31
2022-10-28T05:35:16.481Z,18.31
2022-10-28T05:36:18.968Z,18.33
2022-10-28T05:37:20.577Z,18.34
2022-10-28T05:38:23.204Z,18.34
2022-10-28T05:39:26.128Z,18.36
2022-10-28T05:40:28.659Z,18.37
2022-10-28T05:41:33.055Z,18.38
2022-10-28T05:42:41.996Z,18.38
2022-10-28T05:43:43.543Z,18.39
2022-10-28T05:44:46.743Z,18.38
2022-10-28T05:45:52.823Z,18.39
2022-10-28T05:46:55.672Z,18.39
2022-10-28T05:47:57.284Z,18.39
2022-10-28T05:48:59.856Z,18.40
2022-10-28T05:50:01.534Z,18.40
2022-10-28T05:51:04.057Z,18.41
2022-10-28T05:52:05.905Z,18.41
2022-10-28T05:53:08.385Z,18.42
2022-10-28T05:54:09.912Z,18.41
2022-10-28T05:55:13.806Z,18.42
2022-10-28T05:56:15.836Z,18.43
2022-10-28T05:57:18.434Z,18.42
2022-10-28T05:58:20.025Z,18.42
2022-10-28T05:59:22.725Z,18.42
2022-10-28T06:00:26.460Z,18.41
2022-10-28T06:01:32.924Z,18.40
2022-10-28T06:02:34.525Z,18.39
2022-10-28T06:03:37.121Z,18.39
2022-10-28T06:04:38.635Z,18.38
2022-10-28T06:05:44.001Z,18.37
2022-10-28T06:06:45.532Z,18.37
2022-10-28T06:07:48.316Z,18.37
2022-10-28T06:08:49.891Z,18.38
2022-10-28T06:09:52.780Z,18.37
2022-10-28T06:10:54.251Z,18.36
2022-10-28T06:11:56.748Z,18.36
2022-10-28T06:12:58.364Z,18.36
2022-10-28T06:14:01.075Z,18.36
2022-10-28T06:15:03.562Z,18.37
2022-10-28T06:16:06.391Z,18.37
2022-10-28T06:17:07.925Z,18.37
2022-10-28T06:18:13.269Z,18.36
2022-10-28T06:19:15.875Z,18.38
2022-10-28T06:20:18.554Z,18.36
2022-10-28T06:21:20.187Z,18.38
2022-10-28T06:22:22.711Z,18.37
2022-10-28T06:23:27.085Z,18.38
2022-10-28T06:24:29.881Z,18.38
2022-10-28T06:25:31.387Z,18.36
2022-10-28T06:26:35.337Z,18.37
2022-10-28T06:27:37.026Z,18.36
2022-10-28T06:28:39.562Z,18.37
2022-10-28T06:29:41.169Z,18.37
2022-10-28T06:30:43.726Z,18.37
2022-10-28T06:31:45.355Z,18.36
2022-10-28T06:32:47.983Z,18.37
2022-10-28T06:33:49.778Z,18.36
2022-10-28T06:34:52.865Z,18.37
2022-10-28T06:35:55.545Z,18.36
2022-10-28T06:36:58.202Z,18.34
2022-10-28T06:37:59.766Z,18.35
2022-10-28T06:39:02.842Z,18.34
2022-10-28T06:40:06.866Z,18.33
2022-10-28T06:41:09.393Z,18.34
2022-10-28T06:42:12.262Z,18.34
2022-10-28T06:43:15.065Z,18.35
2022-10-28T06:44:16.595Z,18.34
2022-10-28T06:45:19.113Z,18.33
2022-10-28T06:46:20.902Z,18.35
2022-10-28T06:47:26.070Z,18.33
2022-10-28T06:48:28.626Z,18.34
2022-10-28T06:49:30.180Z,18.35
2022-10-28T06:50:35.282Z,18.38
2022-10-28T06:51:36.851Z,18.37
2022-10-28T06:52:39.387Z,18.39
2022-10-28T06:53:40.932Z,18.39
2022-10-28T06:54:44.076Z,18.40
2022-10-28T06:55:53.375Z,18.40
2022-10-28T06:56:56.287Z,18.42
2022-10-28T06:58:01.205Z,18.42
2022-10-28T06:59:03.737Z,18.42
2022-10-28T07:00:06.390Z,18.45
2022-10-28T07:01:11.795Z,18.45
2022-10-28T07:02:13.463Z,18.47
2022-10-28T07:03:16.357Z,18.49
2022-10-28T07:04:18.875Z,18.49
2022-10-28T07:05:21.226Z,18.50
2022-10-28T07:06:23.907Z,18.50
2022-10-28T07:07:26.021Z,18.53
2022-10-28T07:08:29.330Z,18.54
2022-10-28T07:09:33.434Z,18.55
2022-10-28T07:10:35.097Z,18.55
2022-10-28T07:11:37.746Z,18.57
2022-10-28T07:12:41.299Z,18.57
2022-10-28T07:13:48.115Z,18.59
2022-10-28T07:14:52.428Z,18.59
2022-10-28T07:15:57.062Z,18.61
2022-10-28T07:16:58.662Z,18.61
2022-10-28T07:18:02.485Z,18.62
2022-10-28T07:19:04.247Z,18.64
2022-10-28T07:20:08.339Z,18.66
2022-10-28T07:21:09.902Z,18.68
2022-10-28T07:22:12.421Z,18.69
2022-10-28T07:23:14.135Z,18.71
2022-10-28T07:24:16.664Z,18.73
2022-10-28T07:25:18.210Z,18.75
2022-10-28T07:26:20.956Z,18.75
2022-10-28T07:27:23.428Z,18.78
2022-10-28T07:28:27.329Z,18.80
2022-10-28T07:29:31.172Z,18.84
2022-10-28T07:30:33.761Z,18.84
2022-10-28T07:31:35.330Z,18.86
2022-10-28T07:32:37.781Z,18.87
2022-10-28T07:33:39.301Z,18.88
2022-10-28T07:34:41.775Z,18.89
2022-10-28T07:35:44.308Z,18.90
2022-10-28T07:36:54.694Z,18.93
2022-10-28T07:37:56.424Z,18.93
2022-10-28T07:38:58.894Z,18.94
2022-10-28T07:40:00.411Z,18.95
2022-10-28T07:41:05.587Z,18.97
2022-10-28T07:42:08.061Z,18.98
2022-10-28T07:43:09.685Z,19.00
2022-10-28T07:44:12.288Z,19.01
2022-10-28T07:45:15.396Z,19.03
2022-10-28T07:46:19.507Z,19.03
2022-10-28T07:47:22.068Z,19.05
2022-10-28T07:48:24.663Z,19.05
2022-10-28T07:49:26.273Z,19.08
2022-10-28T07:50:28.743Z,19.09
2022-10-28T07:51:33.232Z,19.10
2022-10-28T07:52:37.423Z,19.11
2022-10-28T07:53:40.703Z,19.14
2022-10-28T07:54:42.323Z,19.17
2022-10-28T07:55:44.817Z,19.17
2022-10-28T07:56:46.519Z,19.19
2022-10-28T07:57:49.447Z,19.19
2022-10-28T07:58:51.117Z,19.22
2022-10-28T07:59:53.652Z,19.24
2022-10-28T08:00:56.553Z,19.26
2022-10-28T08:01:59.210Z,19.27
2022-10-28T08:03:03.471Z,19.29
2022-10-28T08:04:06.321Z,19.30
2022-10-28T08:05:08.444Z,19.31
2022-10-28T08:06:13.570Z,19.33
2022-10-28T08:07:16.992Z,19.35
2022-10-28T08:08:19.549Z,19.36
2022-10-28T08:09:22.034Z,19.37
2022-10-28T08:10:24.914Z,19.37
2022-10-28T08:11:27.383Z,19.38
2022-10-28T08:12:30.758Z,19.38
2022-10-28T08:13:33.540Z,19.37
2022-10-28T08:14:37.412Z,19.38
2022-10-28T08:15:39.940Z,19.37
2022-10-28T08:16:43.773Z,19.36
2022-10-28T08:17:51.104Z,19.35
2022-10-28T08:18:54.056Z,19.34
2022-10-28T08:19:55.565Z,19.34
2022-10-28T08:22:08.316Z,19.32
2022-10-28T08:23:09.854Z,19.33
2022-10-28T08:24:12.328Z,19.31
2022-10-28T08:25:14.923Z,19.31
2022-10-28T08:26:17.997Z,19.30
2022-10-28T08:27:19.549Z,19.29
2022-10-28T08:28:22.491Z,19.30
2022-10-28T08:29:29.139Z,19.29
2022-10-28T08:30:40.398Z,19.29
2022-10-28T08:31:48.786Z,19.29
2022-10-28T08:32:51.555Z,19.29
2022-10-28T08:33:54.207Z,19.30
2022-10-28T08:34:56.700Z,19.30
2022-10-28T08:35:58.234Z,19.32
2022-10-28T08:37:00.767Z,19.34
2022-10-28T08:38:03.098Z,19.36
2022-10-28T08:39:06.040Z,19.37
2022-10-28T08:40:11.924Z,19.40
2022-10-28T08:41:25.682Z,19.40
2022-10-28T08:42:37.604Z,19.41
2022-10-28T08:43:57.528Z,19.42
2022-10-28T08:45:26.436Z,19.41
2022-10-28T08:46:38.855Z,19.42
2022-10-28T08:47:53.017Z,19.43
2022-10-28T08:48:54.850Z,19.45
2022-10-28T08:50:02.771Z,19.47
2022-10-28T08:51:10.083Z,19.48
2022-10-28T08:52:29.186Z,19.50
2022-10-28T08:53:38.632Z,19.53
2022-10-28T08:54:47.182Z,19.55
2022-10-28T08:55:53.628Z,19.59
2022-10-28T08:56:58.602Z,19.61
2022-10-28T08:58:08.255Z,19.63
2022-10-28T08:59:14.228Z,19.65
2022-10-28T09:00:24.014Z,19.68
2022-10-28T09:01:36.149Z,19.70
2022-10-28T09:02:53.306Z,19.71
2022-10-28T09:03:55.119Z,19.73
2022-10-28T09:05:03.335Z,19.76
2022-10-28T09:06:07.615Z,19.77
2022-10-28T09:07:15.809Z,19.80
2022-10-28T09:08:23.658Z,19.83
2022-10-28T09:09:26.181Z,19.84
2022-10-28T09:10:52.225Z,19.86
2022-10-28T09:12:23.088Z,19.88
2022-10-28T09:13:33.436Z,19.91
2022-10-28T09:14:47.507Z,19.93
2022-10-28T09:15:57.605Z,19.96
2022-10-28T09:17:07.258Z,19.98
2022-10-28T09:18:18.763Z,20.00
2022-10-28T09:19:37.857Z,20.03
2022-10-28T09:20:48.840Z,20.06
2022-10-28T09:21:56.317Z,20.08
2022-10-28T09:22:59.490Z,20.12
2022-10-28T09:24:12.251Z,20.13
2022-10-28T09:25:24.059Z,20.16
2022-10-28T09:26:34.404Z,20.17
2022-10-28T09:27:53.813Z,20.21
2022-10-28T09:29:05.601Z,20.24
2022-10-28T09:30:25.079Z,20.27
2022-10-28T09:31:35.566Z,20.31
2022-10-28T09:32:43.561Z,20.33
2022-10-28T09:34:07.935Z,20.34
2022-10-28T09:35:14.717Z,20.37
2022-10-28T09:36:23.020Z,20.39
2022-10-28T09:37:30.176Z,20.41
2022-10-28T09:38:34.580Z,20.44
2022-10-28T09:39:42.753Z,20.46
2022-10-28T09:40:51.297Z,20.46
2022-10-28T09:41:55.702Z,20.47
2022-10-28T09:43:02.830Z,20.48
2022-10-28T09:44:15.120Z,20.48
2022-10-28T09:45:21.708Z,20.50
2022-10-28T09:46:27.613Z,20.52
2022-10-28T09:47:36.721Z,20.55
2022-10-28T09:48:43.201Z,20.59
2022-10-28T09:49:48.235Z,20.62
2022-10-28T09:50:52.962Z,20.65
2022-10-28T09:52:02.641Z,20.68
2022-10-28T09:53:13.976Z,20.70
2022-10-28T09:54:17.808Z,20.73
2022-10-28T09:55:21.063Z,20.76
2022-10-28T09:56:24.091Z,20.79
2022-10-28T09:57:31.437Z,20.83
2022-10-28T09:58:34.139Z,20.85
2022-10-28T09:59:37.025Z,20.88
2022-10-28T10:00:38.728Z,20.91
2022-10-28T10:01:45.732Z,20.93
2022-10-28T10:02:48.780Z,20.93
2022-10-28T10:03:51.845Z,20.96
2022-10-28T10:04:56.555Z,20.98
2022-10-28T10:06:02.553Z,20.98
2022-10-28T10:07:08.790Z,21.00
2022-10-28T10:08:14.828Z,21.01
2022-10-28T10:09:22.561Z,21.02
2022-10-28T10:10:27.897Z,21.03
2022-10-28T10:11:35.745Z,21.05
2022-10-28T10:12:38.842Z,21.04
2022-10-28T10:13:44.734Z,21.06
2022-10-28T10:14:51.303Z,21.08
2022-10-28T10:15:56.531Z,21.09
2022-10-28T10:17:03.646Z,21.12
2022-10-28T10:18:12.279Z,21.15
2022-10-28T10:19:14.890Z,21.16
2022-10-28T10:20:19.578Z,21.17
2022-10-28T10:21:41.946Z,21.17
2022-10-28T10:22:46.202Z,21.20
2022-10-28T10:23:47.739Z,21.21
2022-10-28T10:24:50.869Z,21.25
2022-10-28T10:25:59.672Z,21.27
2022-10-28T10:27:05.047Z,21.30
2022-10-28T10:28:16.874Z,21.31
2022-10-28T10:29:19.198Z,21.34
2022-10-28T10:30:24.751Z,21.37
2022-10-28T10:31:29.823Z,21.39
2022-10-28T10:32:33.802Z,21.43
2022-10-28T10:33:39.173Z,21.45
2022-10-28T10:34:44.971Z,21.47
2022-10-28T10:35:59.755Z,21.47
2022-10-28T10:38:16.495Z,21.50
2022-10-28T10:39:23.157Z,21.52
2022-10-28T10:40:30.951Z,21.54
2022-10-28T10:41:35.246Z,21.57
2022-10-28T10:42:46.502Z,21.58
2022-10-28T10:44:00.115Z,21.59
2022-10-28T10:45:15.644Z,21.62
2022-10-28T10:46:18.705Z,21.62
2022-10-28T10:47:20.958Z,21.64
2022-10-28T10:48:23.467Z,21.65
2022-10-28T10:49:25.947Z,21.66
2022-10-28T10:51:41.212Z,21.69
2022-10-28T10:52:49.074Z,21.70
2022-10-28T10:53:54.542Z,21.70
2022-10-28T10:55:00.879Z,21.70
2022-10-28T10:56:05.857Z,21.70
2022-10-28T10:57:08.601Z,21.71
2022-10-28T10:58:20.833Z,21.72
2022-10-28T10:59:27.559Z,21.72
2022-10-28T11:00:35.525Z,21.74
2022-10-28T11:01:40.922Z,21.76
2022-10-28T11:02:49.030Z,21.77
2022-10-28T11:05:06.465Z,21.81
2022-10-28T11:06:23.678Z,21.85
2022-10-28T11:07:29.540Z,21.88
2022-10-28T11:08:38.303Z,21.90
2022-10-28T11:09:43.071Z,21.93
2022-10-28T11:10:44.686Z,21.96
2022-10-28T11:11:47.186Z,21.98
2022-10-28T11:12:52.486Z,22.01
2022-10-28T11:14:05.136Z,22.04
2022-10-28T11:15:21.598Z,22.06
2022-10-28T11:16:25.613Z,22.11
2022-10-28T11:17:30.009Z,22.14
2022-10-28T11:18:42.324Z,22.17
2022-10-28T11:19:44.822Z,22.19
2022-10-28T11:20:54.810Z,22.20
2022-10-28T11:22:12.831Z,22.21
2022-10-28T11:23:27.715Z,22.23
2022-10-28T11:24:44.275Z,22.24
2022-10-28T11:25:54.134Z,22.26
2022-10-28T11:27:05.084Z,22.27
2022-10-28T11:28:27.647Z,22.27
2022-10-28T11:29:30.271Z,22.30
2022-10-28T11:30:42.843Z,22.33
2022-10-28T11:32:17.564Z,22.32
2022-10-28T11:33:30.889Z,22.36
2022-10-28T11:34:51.870Z,22.38
2022-10-28T11:36:03.963Z,22.40
2022-10-28T11:37:15.471Z,22.42
2022-10-28T11:38:45.901Z,22.41
2022-10-28T11:39:58.336Z,22.39
2022-10-28T11:41:15.181Z,22.39
2022-10-28T11:42:28.707Z,22.37
2022-10-28T11:43:38.858Z,22.39
2022-10-28T11:44:47.717Z,22.40
2022-10-28T11:46:00.204Z,22.42
2022-10-28T11:47:18.563Z,22.43
2022-10-28T11:48:40.255Z,22.43
2022-10-28T11:50:08.336Z,22.43
2022-10-28T11:51:20.186Z,22.43
2022-10-28T11:52:31.155Z,22.45
2022-10-28T11:53:51.623Z,22.45
2022-10-28T11:55:01.961Z,22.48
2022-10-28T11:56:12.867Z,22.50
2022-10-28T11:57:18.360Z,22.52
2022-10-28T11:58:28.358Z,22.54
2022-10-28T11:59:54.952Z,22.54
2022-10-28T12:01:09.832Z,22.54
2022-10-28T12:02:30.432Z,22.55
2022-10-28T12:03:50.013Z,22.55
2022-10-28T12:05:03.638Z,22.58
2022-10-28T12:06:15.089Z,22.60
2022-10-28T12:07:52.397Z,22.59
2022-10-28T12:09:13.659Z,22.60
2022-10-28T12:10:34.382Z,22.62
2022-10-28T12:11:48.883Z,22.62
2022-10-28T12:12:59.951Z,22.67
2022-10-28T12:14:11.865Z,22.69
2022-10-28T12:15:21.064Z,22.70
2022-10-28T12:16:32.039Z,22.72
2022-10-28T12:17:41.245Z,22.76
2022-10-28T12:18:52.272Z,22.79
2022-10-28T12:19:57.966Z,22.79
2022-10-28T12:21:07.303Z,22.84
2022-10-28T12:22:15.380Z,22.86
2022-10-28T12:23:20.862Z,22.89
2022-10-28T12:24:26.391Z,22.92
2022-10-28T12:25:33.730Z,22.94
2022-10-28T12:26:40.925Z,22.95
2022-10-28T12:27:46.560Z,22.96
2022-10-28T12:28:52.808Z,22.97
2022-10-28T12:30:00.574Z,22.96
2022-10-28T12:31:04.820Z,22.97
2022-10-28T12:32:09.760Z,22.98
2022-10-28T12:33:18.279Z,22.99
2022-10-28T12:34:26.371Z,23.00
2022-10-28T12:35:32.263Z,23.02
2022-10-28T12:36:39.473Z,23.03
2022-10-28T12:37:48.725Z,23.04
2022-10-28T12:38:58.822Z,23.05
2022-10-28T12:40:12.434Z,23.05
2022-10-28T12:41:17.680Z,23.06
2022-10-28T12:42:23.440Z,23.06
2022-10-28T12:43:32.431Z,23.07
2022-10-28T12:44:38.691Z,23.07
2022-10-28T12:45:42.470Z,23.07
2022-10-28T12:46:54.919Z,23.07
2022-10-28T12:48:01.611Z,23.07
2022-10-28T12:49:09.455Z,23.07
2022-10-28T12:50:20.543Z,23.08
2022-10-28T12:51:29.874Z,23.09
2022-10-28T12:52:39.492Z,23.08
2022-10-28T12:53:47.916Z,23.09
2022-10-28T12:54:58.296Z,23.08
2022-10-28T12:56:03.843Z,23.09
2022-10-28T12:57:13.613Z,23.09
2022-10-28T12:58:23.142Z,23.09
2022-10-28T12:59:32.576Z,23.10
2022-10-28T13:00:38.685Z,23.10
2022-10-28T13:01:43.670Z,23.13
2022-10-28T13:02:53.316Z,23.14
2022-10-28T13:03:56.100Z,23.14
2022-10-28T13:04:59.432Z,23.16
2022-10-28T13:06:22.946Z,23.17
2022-10-28T13:07:48.836Z,23.18
2022-10-28T13:09:15.523Z,23.18
2022-10-28T13:10:26.641Z,23.23
2022-10-28T13:12:07.319Z,23.25
2022-10-28T13:13:24.067Z,23.28
2022-10-28T13:14:46.496Z,23.32
2022-10-28T13:16:00.202Z,23.35
2022-10-28T13:17:21.184Z,23.39
2022-10-28T13:18:57.902Z,23.40
2022-10-28T13:20:18.230Z,23.43
2022-10-28T13:21:30.873Z,23.45
2022-10-28T13:23:00.484Z,23.47
2022-10-28T13:24:14.267Z,23.48
2022-10-28T13:25:57.674Z,23.49
2022-10-28T13:27:03.853Z,23.49
2022-10-28T13:28:06.045Z,23.51
2022-10-28T13:29:19.590Z,23.55
2022-10-28T13:30:22.701Z,23.57
2022-10-28T13:31:40.727Z,23.57
2022-10-28T13:32:42.895Z,23.59
2022-10-28T13:33:53.813Z,23.60
2022-10-28T13:34:57.318Z,23.61
2022-10-28T13:36:11.579Z,23.61
2022-10-28T13:37:21.715Z,23.60
2022-10-28T13:38:27.206Z,23.61
2022-10-28T13:39:42.435Z,23.61
2022-10-28T13:41:09.949Z,23.61
2022-10-28T13:42:46.677Z,23.59
2022-10-28T13:44:23.966Z,23.57
2022-10-28T13:45:48.202Z,23.57
2022-10-28T13:47:24.341Z,23.58
2022-10-28T13:48:46.306Z,23.55
2022-10-28T13:50:32.720Z,23.53
2022-10-28T13:51:46.391Z,23.53
2022-10-28T13:53:44.467Z,23.50
2022-10-28T13:55:58.574Z,23.47
2022-10-28T13:57:12.969Z,23.46
2022-10-28T13:58:23.534Z,23.44
2022-10-28T13:59:34.746Z,23.44
2022-10-28T14:00:37.594Z,23.41
2022-10-28T14:02:01.993Z,23.41
2022-10-28T14:03:20.021Z,23.39
2022-10-28T14:04:28.770Z,23.38
2022-10-28T14:05:55.305Z,23.37
2022-10-28T14:07:01.890Z,23.39
2022-10-28T14:08:07.153Z,23.40
2022-10-28T14:09:20.710Z,23.39
2022-10-28T14:10:25.855Z,23.40
2022-10-28T14:11:29.078Z,23.39
2022-10-28T14:12:33.733Z,23.40
2022-10-28T14:13:38.899Z,23.40
2022-10-28T14:14:53.216Z,23.38
2022-10-28T14:16:17.884Z,23.34
2022-10-28T14:17:23.119Z,23.33
2022-10-28T14:19:49.491Z,23.29
2022-10-28T14:21:00.542Z,23.31
2022-10-28T14:22:06.251Z,23.30
2022-10-28T14:23:46.059Z,23.29
2022-10-28T14:24:47.667Z,23.26
2022-10-28T14:26:04.187Z,23.26
2022-10-28T14:27:31.790Z,23.24
2022-10-28T14:28:55.477Z,23.21
2022-10-28T14:30:28.079Z,23.18
2022-10-28T14:31:36.868Z,23.17
2022-10-28T14:32:57.876Z,23.16
2022-10-28T14:34:31.575Z,23.14
2022-10-28T14:35:41.088Z,23.14
2022-10-28T14:36:54.275Z,23.15
2022-10-28T14:38:46.342Z,23.12
2022-10-28T14:40:02.391Z,23.11